Decoded Metar for UACK (KOKSHETAU in KAZAKHSTAN) (IATA:N/A) | Meteo·Mobile Aviation Weather
aviador You're here:

UACK Decoded Metar

KOKSHETAU in KAZAKHSTAN
Report Time2019-07-21 18:00:00
UTC Time2019-07-21 18:24:19
Flight Rules vfr VFR
WindCalm
Visibility9999 m
Phenomena:N/A
Clouds:N/A
Expected CloudBase > 2,400 ft AGL from Temp-Dew spread
CeilingNone
Temp23°C (ISA +25)
Dew Point17°C (69% RH)
QNH1003 hPa
Density Alt11,775 ft
Elevation8,356 ft
Report Wrong Elevation
Raw Report
UACK 211800Z 00000MPS CAVOK 23/17 Q1003 R20/090070 NOSIG RMK
QFE729/0972=

Extra information for UACK:More info

Metar Taf Metar & Taf Last 4 Metars F.Rules Stats Wind Profile Meteogram Temp Stats Airport Information Weather charts Add Link Nearby VenuesMetar ALERT Operation Metar Decoded Social comments